Log in Register

Login to your account

Username *
Password *
Remember Me

Create an account

Fields marked with an asterisk (*) are required.
Name *
Username *
Password *
Verify password *
Email *
Verify email *

METAR/TAF de Chambéry

[source: ADDS]
METAR
LFLB 190200Z AUTO 18003KT 160V250 CAVOK 15/12 Q1016 NOSIG =
TAF LFLB 182300Z 1900/1924 VRB02KT CAVOK
TAF
TAF LFLB 182300Z 1900/1924 VRB02KT CAVOK =
SR / SS: 04:05 / 19:20 UTC (Lever/Coucher du soleil le 2019-07-19)

 

Webcam de l'Aéroclub - Parking Lima et SW (réactualisation : 5min)

Cliquer ici pour une animation sur les 3 dernières heures / Cliquer sur l'image pour l'agrandir dans une nouvelle fenêtre

 

Webcam de l'Aéroclub - Manche à air et WA (réactualisation : 5min)

Cliquer ici pour une animation sur les 3 dernières heures / Cliquer sur l'image pour l'agrandir dans une nouvelle fenêtre

 

JSN Boot template designed by JoomlaShine.com